Terminal Aerodrome Forecast
Issued by NWS

Home | Current Version | Previous Version | Text Only | Print | Product List | Glossary On
Versions: 1 2 3 4 5 6 7 8 9 10 11 12 13 14
000
FTUS42 KILM 121120
TAFCRE
TAF
KCRE 121120Z 1212/1312 23010G15KT P6SM SCT200 WS015/26030KT
     FM121600 25013G20KT P6SM BKN200
     FM121900 29012G23KT P6SM FEW090 BKN200
     FM122300 30012KT P6SM SCT045=

USA.gov is the U.S. government's official web portal to all federal, state and local government web resources and services.